sensor_id;sensor_type;location;lat;lon;timestamp;P1;durP1;ratioP1;P2;durP2;ratioP2
72590;SDS011;60625;51.212;5.952;2023-02-04T00:01:59;13.00;;;2.90;;
72590;SDS011;60625;51.212;5.952;2023-02-04T00:06:59;18.10;;;2.90;;
72590;SDS011;60625;51.212;5.952;2023-02-04T00:12:00;16.80;;;2.30;;
72590;SDS011;60625;51.212;5.952;2023-02-04T00:17:00;13.10;;;1.70;;
72590;SDS011;60625;51.212;5.952;2023-02-04T00:22:01;18.20;;;2.60;;
72590;SDS011;60625;51.212;5.952;2023-02-04T00:27:04;18.50;;;2.70;;
72590;SDS011;60625;51.212;5.952;2023-02-04T00:32:05;12.10;;;1.40;;
72590;SDS011;60625;51.212;5.952;2023-02-04T00:37:06;11.20;;;1.80;;
72590;SDS011;60625;51.212;5.952;2023-02-04T00:42:07;13.80;;;2.10;;
72590;SDS011;60625;51.212;5.952;2023-02-04T00:47:09;11.50;;;1.50;;
72590;SDS011;60625;51.212;5.952;2023-02-04T00:52:10;10.10;;;1.80;;
72590;SDS011;60625;51.212;5.952;2023-02-04T00:57:10;13.40;;;2.00;;
72590;SDS011;60625;51.212;5.952;2023-02-04T01:02:11;17.20;;;1.80;;
72590;SDS011;60625;51.212;5.952;2023-02-04T01:07:11;13.60;;;1.60;;
72590;SDS011;60625;51.212;5.952;2023-02-04T01:12:12;13.40;;;1.80;;
72590;SDS011;60625;51.212;5.952;2023-02-04T01:17:12;17.30;;;2.00;;
72590;SDS011;60625;51.212;5.952;2023-02-04T01:22:13;10.30;;;2.00;;
72590;SDS011;60625;51.212;5.952;2023-02-04T01:27:13;13.10;;;1.70;;
72590;SDS011;60625;51.212;5.952;2023-02-04T01:32:14;14.10;;;2.50;;
72590;SDS011;60625;51.212;5.952;2023-02-04T01:37:15;14.30;;;1.40;;
72590;SDS011;60625;51.212;5.952;2023-02-04T01:42:16;13.60;;;1.70;;
72590;SDS011;60625;51.212;5.952;2023-02-04T01:47:18;12.00;;;2.00;;
72590;SDS011;60625;51.212;5.952;2023-02-04T01:52:20;9.50;;;1.50;;
72590;SDS011;60625;51.212;5.952;2023-02-04T01:57:22;14.40;;;1.70;;
72590;SDS011;60625;51.212;5.952;2023-02-04T02:02:43;13.20;;;2.40;;
72590;SDS011;60625;51.212;5.952;2023-02-04T02:07:49;9.30;;;1.70;;
72590;SDS011;60625;51.212;5.952;2023-02-04T02:12:51;11.60;;;1.80;;
72590;SDS011;60625;51.212;5.952;2023-02-04T02:17:53;12.80;;;1.70;;
72590;SDS011;60625;51.212;5.952;2023-02-04T02:23:13;11.50;;;1.30;;
72590;SDS011;60625;51.212;5.952;2023-02-04T02:28:25;11.40;;;1.50;;
72590;SDS011;60625;51.212;5.952;2023-02-04T02:33:26;10.50;;;1.30;;
72590;SDS011;60625;51.212;5.952;2023-02-04T02:38:26;11.60;;;1.50;;
72590;SDS011;60625;51.212;5.952;2023-02-04T02:43:27;15.30;;;1.70;;
72590;SDS011;60625;51.212;5.952;2023-02-04T02:48:28;12.80;;;1.50;;
72590;SDS011;60625;51.212;5.952;2023-02-04T02:53:29;10.50;;;1.80;;
72590;SDS011;60625;51.212;5.952;2023-02-04T02:58:32;15.90;;;2.00;;
72590;SDS011;60625;51.212;5.952;2023-02-04T03:03:54;12.10;;;1.90;;
72590;SDS011;60625;51.212;5.952;2023-02-04T03:08:55;9.50;;;1.40;;
72590;SDS011;60625;51.212;5.952;2023-02-04T03:13:58;13.70;;;1.70;;
72590;SDS011;60625;51.212;5.952;2023-02-04T03:19:04;9.00;;;2.00;;
72590;SDS011;60625;51.212;5.952;2023-02-04T03:24:06;12.80;;;1.70;;
72590;SDS011;60625;51.212;5.952;2023-02-04T03:29:08;13.80;;;2.00;;
72590;SDS011;60625;51.212;5.952;2023-02-04T03:34:10;15.70;;;1.60;;
72590;SDS011;60625;51.212;5.952;2023-02-04T03:39:10;15.30;;;2.00;;
72590;SDS011;60625;51.212;5.952;2023-02-04T03:44:11;12.00;;;2.00;;
72590;SDS011;60625;51.212;5.952;2023-02-04T03:49:11;13.20;;;1.80;;
72590;SDS011;60625;51.212;5.952;2023-02-04T03:54:12;11.10;;;1.80;;
72590;SDS011;60625;51.212;5.952;2023-02-04T03:59:13;12.40;;;1.60;;
72590;SDS011;60625;51.212;5.952;2023-02-04T04:04:13;11.00;;;1.80;;
72590;SDS011;60625;51.212;5.952;2023-02-04T04:09:14;9.70;;;1.80;;
72590;SDS011;60625;51.212;5.952;2023-02-04T04:14:14;13.80;;;1.80;;
72590;SDS011;60625;51.212;5.952;2023-02-04T04:19:15;15.00;;;2.10;;
72590;SDS011;60625;51.212;5.952;2023-02-04T04:24:15;13.50;;;2.10;;
72590;SDS011;60625;51.212;5.952;2023-02-04T04:29:16;18.70;;;2.20;;
72590;SDS011;60625;51.212;5.952;2023-02-04T04:34:16;16.80;;;3.00;;
72590;SDS011;60625;51.212;5.952;2023-02-04T04:39:17;14.10;;;2.20;;
72590;SDS011;60625;51.212;5.952;2023-02-04T04:44:17;15.40;;;2.80;;
72590;SDS011;60625;51.212;5.952;2023-02-04T04:49:18;17.20;;;2.40;;
72590;SDS011;60625;51.212;5.952;2023-02-04T04:54:18;17.70;;;3.40;;
72590;SDS011;60625;51.212;5.952;2023-02-04T04:59:19;13.80;;;2.60;;
72590;SDS011;60625;51.212;5.952;2023-02-04T05:04:19;14.20;;;2.90;;
72590;SDS011;60625;51.212;5.952;2023-02-04T05:09:20;14.30;;;2.70;;
72590;SDS011;60625;51.212;5.952;2023-02-04T05:14:20;16.20;;;3.20;;
72590;SDS011;60625;51.212;5.952;2023-02-04T05:19:20;11.50;;;3.20;;
72590;SDS011;60625;51.212;5.952;2023-02-04T05:24:22;18.60;;;2.90;;
72590;SDS011;60625;51.212;5.952;2023-02-04T05:29:22;15.10;;;2.90;;
72590;SDS011;60625;51.212;5.952;2023-02-04T05:34:23;13.30;;;2.90;;
72590;SDS011;60625;51.212;5.952;2023-02-04T05:39:23;16.80;;;3.30;;
72590;SDS011;60625;51.212;5.952;2023-02-04T05:44:24;18.50;;;3.50;;
72590;SDS011;60625;51.212;5.952;2023-02-04T05:49:24;16.80;;;3.40;;
72590;SDS011;60625;51.212;5.952;2023-02-04T05:54:25;17.60;;;3.60;;
72590;SDS011;60625;51.212;5.952;2023-02-04T05:59:25;12.70;;;3.50;;
72590;SDS011;60625;51.212;5.952;2023-02-04T06:04:26;14.20;;;4.40;;
72590;SDS011;60625;51.212;5.952;2023-02-04T06:09:26;12.00;;;3.20;;
72590;SDS011;60625;51.212;5.952;2023-02-04T06:14:27;19.60;;;4.50;;
72590;SDS011;60625;51.212;5.952;2023-02-04T06:19:27;16.80;;;4.00;;
72590;SDS011;60625;51.212;5.952;2023-02-04T06:24:28;19.10;;;5.20;;
72590;SDS011;60625;51.212;5.952;2023-02-04T06:29:29;22.30;;;4.70;;
72590;SDS011;60625;51.212;5.952;2023-02-04T06:34:29;15.30;;;4.60;;
72590;SDS011;60625;51.212;5.952;2023-02-04T06:39:29;15.80;;;4.00;;
72590;SDS011;60625;51.212;5.952;2023-02-04T06:44:30;20.50;;;4.50;;
72590;SDS011;60625;51.212;5.952;2023-02-04T06:49:30;23.70;;;5.60;;
72590;SDS011;60625;51.212;5.952;2023-02-04T06:54:31;23.50;;;5.40;;
72590;SDS011;60625;51.212;5.952;2023-02-04T06:59:36;25.40;;;5.90;;
72590;SDS011;60625;51.212;5.952;2023-02-04T07:04:38;24.70;;;7.00;;
72590;SDS011;60625;51.212;5.952;2023-02-04T07:09:38;19.60;;;5.30;;
72590;SDS011;60625;51.212;5.952;2023-02-04T07:14:39;24.40;;;5.70;;
72590;SDS011;60625;51.212;5.952;2023-02-04T07:19:40;24.20;;;5.90;;
72590;SDS011;60625;51.212;5.952;2023-02-04T07:24:40;24.20;;;4.70;;
72590;SDS011;60625;51.212;5.952;2023-02-04T07:29:41;26.90;;;6.40;;
72590;SDS011;60625;51.212;5.952;2023-02-04T07:34:41;29.40;;;6.80;;
72590;SDS011;60625;51.212;5.952;2023-02-04T07:39:42;29.20;;;6.40;;
72590;SDS011;60625;51.212;5.952;2023-02-04T07:44:42;26.60;;;6.90;;
72590;SDS011;60625;51.212;5.952;2023-02-04T07:49:43;27.80;;;7.10;;
72590;SDS011;60625;51.212;5.952;2023-02-04T07:54:44;25.00;;;7.90;;
72590;SDS011;60625;51.212;5.952;2023-02-04T07:59:44;33.20;;;7.60;;
72590;SDS011;60625;51.212;5.952;2023-02-04T08:04:44;30.40;;;6.90;;
72590;SDS011;60625;51.212;5.952;2023-02-04T08:09:45;34.00;;;8.10;;
72590;SDS011;60625;51.212;5.952;2023-02-04T08:14:46;29.70;;;7.50;;
72590;SDS011;60625;51.212;5.952;2023-02-04T08:19:46;29.60;;;7.20;;
72590;SDS011;60625;51.212;5.952;2023-02-04T08:24:47;28.00;;;7.20;;
72590;SDS011;60625;51.212;5.952;2023-02-04T08:29:48;27.80;;;8.00;;
72590;SDS011;60625;51.212;5.952;2023-02-04T08:34:48;39.30;;;8.20;;
72590;SDS011;60625;51.212;5.952;2023-02-04T08:39:49;29.80;;;7.80;;
72590;SDS011;60625;51.212;5.952;2023-02-04T08:44:49;25.10;;;8.40;;
72590;SDS011;60625;51.212;5.952;2023-02-04T08:49:50;33.90;;;8.50;;
72590;SDS011;60625;51.212;5.952;2023-02-04T08:54:51;27.60;;;8.50;;
72590;SDS011;60625;51.212;5.952;2023-02-04T08:59:51;31.50;;;8.20;;
72590;SDS011;60625;51.212;5.952;2023-02-04T09:04:51;29.10;;;9.20;;
72590;SDS011;60625;51.212;5.952;2023-02-04T09:09:52;38.70;;;18.80;;
72590;SDS011;60625;51.212;5.952;2023-02-04T09:14:52;34.90;;;10.70;;
72590;SDS011;60625;51.212;5.952;2023-02-04T09:19:53;29.70;;;8.80;;
72590;SDS011;60625;51.212;5.952;2023-02-04T09:24:53;37.70;;;10.00;;
72590;SDS011;60625;51.212;5.952;2023-02-04T09:29:54;28.70;;;8.90;;
72590;SDS011;60625;51.212;5.952;2023-02-04T09:34:55;32.70;;;9.50;;
72590;SDS011;60625;51.212;5.952;2023-02-04T09:39:55;32.90;;;9.60;;
72590;SDS011;60625;51.212;5.952;2023-02-04T09:44:56;32.00;;;8.80;;
72590;SDS011;60625;51.212;5.952;2023-02-04T09:49:56;38.90;;;10.40;;
72590;SDS011;60625;51.212;5.952;2023-02-04T09:54:57;33.90;;;10.00;;
72590;SDS011;60625;51.212;5.952;2023-02-04T09:59:58;35.90;;;10.60;;
72590;SDS011;60625;51.212;5.952;2023-02-04T10:04:58;43.10;;;11.80;;
72590;SDS011;60625;51.212;5.952;2023-02-04T10:09:59;35.60;;;10.30;;
72590;SDS011;60625;51.212;5.952;2023-02-04T10:14:59;32.00;;;10.50;;
72590;SDS011;60625;51.212;5.952;2023-02-04T10:20:01;34.70;;;9.30;;
72590;SDS011;60625;51.212;5.952;2023-02-04T10:25:10;29.90;;;9.40;;
72590;SDS011;60625;51.212;5.952;2023-02-04T10:30:18;32.00;;;8.30;;
72590;SDS011;60625;51.212;5.952;2023-02-04T10:35:21;34.30;;;9.20;;
72590;SDS011;60625;51.212;5.952;2023-02-04T10:40:32;27.00;;;7.30;;
72590;SDS011;60625;51.212;5.952;2023-02-04T10:45:34;29.30;;;8.00;;
72590;SDS011;60625;51.212;5.952;2023-02-04T10:50:35;36.10;;;9.20;;
72590;SDS011;60625;51.212;5.952;2023-02-04T10:55:35;25.40;;;7.70;;
72590;SDS011;60625;51.212;5.952;2023-02-04T11:00:36;26.30;;;7.30;;
72590;SDS011;60625;51.212;5.952;2023-02-04T11:05:37;27.20;;;8.30;;
72590;SDS011;60625;51.212;5.952;2023-02-04T11:10:38;30.90;;;7.80;;
72590;SDS011;60625;51.212;5.952;2023-02-04T11:15:42;32.00;;;8.40;;
72590;SDS011;60625;51.212;5.952;2023-02-04T11:20:43;31.00;;;8.10;;
72590;SDS011;60625;51.212;5.952;2023-02-04T11:25:44;27.30;;;9.00;;
72590;SDS011;60625;51.212;5.952;2023-02-04T11:30:44;29.00;;;7.20;;
72590;SDS011;60625;51.212;5.952;2023-02-04T11:35:59;24.80;;;6.60;;
72590;SDS011;60625;51.212;5.952;2023-02-04T11:41:01;30.60;;;7.20;;
72590;SDS011;60625;51.212;5.952;2023-02-04T11:46:04;24.00;;;6.40;;
72590;SDS011;60625;51.212;5.952;2023-02-04T11:51:15;24.60;;;6.40;;
72590;SDS011;60625;51.212;5.952;2023-02-04T11:56:19;24.10;;;6.30;;
72590;SDS011;60625;51.212;5.952;2023-02-04T12:01:23;21.10;;;5.70;;
72590;SDS011;60625;51.212;5.952;2023-02-04T12:06:28;25.80;;;6.00;;
72590;SDS011;60625;51.212;5.952;2023-02-04T12:11:31;33.10;;;5.60;;
72590;SDS011;60625;51.212;5.952;2023-02-04T12:17:00;27.80;;;5.40;;
72590;SDS011;60625;51.212;5.952;2023-02-04T12:22:00;24.90;;;5.10;;
72590;SDS011;60625;51.212;5.952;2023-02-04T12:27:01;19.30;;;4.40;;
72590;SDS011;60625;51.212;5.952;2023-02-04T12:32:02;23.60;;;5.60;;
72590;SDS011;60625;51.212;5.952;2023-02-04T12:37:02;22.90;;;4.80;;
72590;SDS011;60625;51.212;5.952;2023-02-04T12:42:03;25.40;;;4.60;;
72590;SDS011;60625;51.212;5.952;2023-02-04T12:47:04;26.20;;;4.80;;
72590;SDS011;60625;51.212;5.952;2023-02-04T12:52:05;22.40;;;5.30;;
72590;SDS011;60625;51.212;5.952;2023-02-04T12:57:06;24.30;;;4.30;;
72590;SDS011;60625;51.212;5.952;2023-02-04T13:02:08;19.90;;;3.90;;
72590;SDS011;60625;51.212;5.952;2023-02-04T13:07:10;23.00;;;5.00;;
72590;SDS011;60625;51.212;5.952;2023-02-04T13:12:10;23.90;;;5.10;;
72590;SDS011;60625;51.212;5.952;2023-02-04T13:17:14;17.20;;;3.80;;
72590;SDS011;60625;51.212;5.952;2023-02-04T13:22:14;17.80;;;3.60;;
72590;SDS011;60625;51.212;5.952;2023-02-04T13:27:15;23.80;;;4.30;;
72590;SDS011;60625;51.212;5.952;2023-02-04T13:32:16;27.30;;;4.80;;
72590;SDS011;60625;51.212;5.952;2023-02-04T13:37:16;20.10;;;4.20;;
72590;SDS011;60625;51.212;5.952;2023-02-04T13:42:17;16.60;;;4.20;;
72590;SDS011;60625;51.212;5.952;2023-02-04T13:47:18;23.80;;;4.80;;
72590;SDS011;60625;51.212;5.952;2023-02-04T13:52:18;20.10;;;4.80;;
72590;SDS011;60625;51.212;5.952;2023-02-04T13:57:19;22.20;;;5.80;;
72590;SDS011;60625;51.212;5.952;2023-02-04T14:02:20;38.20;;;12.30;;
72590;SDS011;60625;51.212;5.952;2023-02-04T14:07:23;24.50;;;7.30;;
72590;SDS011;60625;51.212;5.952;2023-02-04T14:12:23;18.70;;;4.70;;
72590;SDS011;60625;51.212;5.952;2023-02-04T14:17:24;28.70;;;9.70;;
72590;SDS011;60625;51.212;5.952;2023-02-04T14:22:24;17.70;;;4.50;;
72590;SDS011;60625;51.212;5.952;2023-02-04T14:27:25;17.00;;;3.50;;
72590;SDS011;60625;51.212;5.952;2023-02-04T14:32:26;26.60;;;6.00;;
72590;SDS011;60625;51.212;5.952;2023-02-04T14:37:27;19.30;;;4.20;;
72590;SDS011;60625;51.212;5.952;2023-02-04T14:42:27;15.30;;;3.80;;
72590;SDS011;60625;51.212;5.952;2023-02-04T14:47:28;21.50;;;4.90;;
72590;SDS011;60625;51.212;5.952;2023-02-04T14:52:28;19.50;;;3.80;;
72590;SDS011;60625;51.212;5.952;2023-02-04T14:57:29;28.40;;;4.00;;
72590;SDS011;60625;51.212;5.952;2023-02-04T15:02:29;18.30;;;4.00;;
72590;SDS011;60625;51.212;5.952;2023-02-04T15:07:30;13.40;;;3.60;;
72590;SDS011;60625;51.212;5.952;2023-02-04T15:12:30;21.40;;;4.60;;
72590;SDS011;60625;51.212;5.952;2023-02-04T15:17:31;21.10;;;4.50;;
72590;SDS011;60625;51.212;5.952;2023-02-04T15:22:31;19.20;;;3.70;;
72590;SDS011;60625;51.212;5.952;2023-02-04T15:27:32;25.60;;;4.90;;
72590;SDS011;60625;51.212;5.952;2023-02-04T15:32:32;27.30;;;9.30;;
72590;SDS011;60625;51.212;5.952;2023-02-04T15:37:33;25.10;;;9.20;;
72590;SDS011;60625;51.212;5.952;2023-02-04T15:42:33;21.20;;;6.40;;
72590;SDS011;60625;51.212;5.952;2023-02-04T15:47:34;31.10;;;11.40;;
72590;SDS011;60625;51.212;5.952;2023-02-04T15:52:35;38.20;;;16.90;;
72590;SDS011;60625;51.212;5.952;2023-02-04T15:57:37;26.40;;;7.10;;
72590;SDS011;60625;51.212;5.952;2023-02-04T16:02:37;23.00;;;5.00;;
72590;SDS011;60625;51.212;5.952;2023-02-04T16:07:38;13.70;;;3.70;;
72590;SDS011;60625;51.212;5.952;2023-02-04T16:12:38;19.80;;;6.00;;
72590;SDS011;60625;51.212;5.952;2023-02-04T16:17:39;19.30;;;4.20;;
72590;SDS011;60625;51.212;5.952;2023-02-04T16:22:39;19.90;;;4.70;;
72590;SDS011;60625;51.212;5.952;2023-02-04T16:27:40;16.30;;;3.50;;
72590;SDS011;60625;51.212;5.952;2023-02-04T16:32:41;18.30;;;3.70;;
72590;SDS011;60625;51.212;5.952;2023-02-04T16:37:41;24.10;;;4.50;;
72590;SDS011;60625;51.212;5.952;2023-02-04T16:42:42;18.20;;;4.20;;
72590;SDS011;60625;51.212;5.952;2023-02-04T16:47:42;18.00;;;5.50;;
72590;SDS011;60625;51.212;5.952;2023-02-04T16:52:42;20.00;;;4.70;;
72590;SDS011;60625;51.212;5.952;2023-02-04T16:57:43;19.80;;;3.80;;
72590;SDS011;60625;51.212;5.952;2023-02-04T17:02:44;18.60;;;3.80;;
72590;SDS011;60625;51.212;5.952;2023-02-04T17:07:45;16.20;;;3.30;;
72590;SDS011;60625;51.212;5.952;2023-02-04T17:12:45;14.10;;;3.90;;
72590;SDS011;60625;51.212;5.952;2023-02-04T17:17:45;14.60;;;3.00;;
72590;SDS011;60625;51.212;5.952;2023-02-04T17:22:46;19.40;;;4.20;;
72590;SDS011;60625;51.212;5.952;2023-02-04T17:27:47;21.40;;;3.90;;
72590;SDS011;60625;51.212;5.952;2023-02-04T17:32:50;20.10;;;3.80;;
72590;SDS011;60625;51.212;5.952;2023-02-04T17:37:51;23.40;;;3.70;;
72590;SDS011;60625;51.212;5.952;2023-02-04T17:42:53;20.30;;;4.50;;
72590;SDS011;60625;51.212;5.952;2023-02-04T17:47:55;14.50;;;2.70;;
72590;SDS011;60625;51.212;5.952;2023-02-04T17:52:56;18.40;;;3.80;;
72590;SDS011;60625;51.212;5.952;2023-02-04T17:58:00;19.30;;;3.80;;
72590;SDS011;60625;51.212;5.952;2023-02-04T18:03:02;22.30;;;5.40;;
72590;SDS011;60625;51.212;5.952;2023-02-04T18:13:18;21.30;;;5.40;;
72590;SDS011;60625;51.212;5.952;2023-02-04T18:18:31;19.40;;;5.20;;
72590;SDS011;60625;51.212;5.952;2023-02-04T18:23:36;16.70;;;3.80;;
72590;SDS011;60625;51.212;5.952;2023-02-04T18:28:38;15.70;;;4.60;;
72590;SDS011;60625;51.212;5.952;2023-02-04T18:33:41;20.60;;;4.60;;
72590;SDS011;60625;51.212;5.952;2023-02-04T18:38:44;17.20;;;4.00;;
72590;SDS011;60625;51.212;5.952;2023-02-04T18:43:47;17.80;;;5.30;;
72590;SDS011;60625;51.212;5.952;2023-02-04T18:48:59;15.00;;;3.30;;
72590;SDS011;60625;51.212;5.952;2023-02-04T18:54:32;12.70;;;3.30;;
72590;SDS011;60625;51.212;5.952;2023-02-04T18:59:35;15.60;;;3.80;;
72590;SDS011;60625;51.212;5.952;2023-02-04T19:04:35;17.20;;;4.50;;
72590;SDS011;60625;51.212;5.952;2023-02-04T19:09:36;15.60;;;5.20;;
72590;SDS011;60625;51.212;5.952;2023-02-04T19:14:37;27.60;;;9.10;;
72590;SDS011;60625;51.212;5.952;2023-02-04T19:19:43;20.90;;;5.90;;
72590;SDS011;60625;51.212;5.952;2023-02-04T19:35:38;30.30;;;10.10;;
72590;SDS011;60625;51.212;5.952;2023-02-04T19:40:40;22.70;;;6.90;;
72590;SDS011;60625;51.212;5.952;2023-02-04T19:45:44;21.80;;;7.30;;
72590;SDS011;60625;51.212;5.952;2023-02-04T19:50:45;24.40;;;7.80;;
72590;SDS011;60625;51.212;5.952;2023-02-04T19:55:48;26.90;;;9.70;;
72590;SDS011;60625;51.212;5.952;2023-02-04T20:01:10;23.00;;;7.40;;
72590;SDS011;60625;51.212;5.952;2023-02-04T20:06:29;16.20;;;6.10;;
72590;SDS011;60625;51.212;5.952;2023-02-04T20:27:36;57.00;;;22.40;;
72590;SDS011;60625;51.212;5.952;2023-02-04T20:32:44;41.20;;;18.00;;
72590;SDS011;60625;51.212;5.952;2023-02-04T20:37:57;19.90;;;7.00;;
72590;SDS011;60625;51.212;5.952;2023-02-04T20:43:01;22.30;;;8.20;;
72590;SDS011;60625;51.212;5.952;2023-02-04T20:58:41;40.10;;;12.70;;
72590;SDS011;60625;51.212;5.952;2023-02-04T21:03:46;33.00;;;11.90;;
72590;SDS011;60625;51.212;5.952;2023-02-04T21:08:50;24.50;;;9.90;;
72590;SDS011;60625;51.212;5.952;2023-02-04T21:13:52;25.20;;;7.00;;
72590;SDS011;60625;51.212;5.952;2023-02-04T21:18:53;21.50;;;7.40;;
72590;SDS011;60625;51.212;5.952;2023-02-04T21:23:53;26.20;;;8.20;;
72590;SDS011;60625;51.212;5.952;2023-02-04T21:28:54;25.90;;;9.30;;
72590;SDS011;60625;51.212;5.952;2023-02-04T21:33:55;23.70;;;8.00;;
72590;SDS011;60625;51.212;5.952;2023-02-04T21:38:57;19.50;;;8.20;;
72590;SDS011;60625;51.212;5.952;2023-02-04T21:43:57;27.60;;;9.50;;
72590;SDS011;60625;51.212;5.952;2023-02-04T21:48:58;22.40;;;10.00;;
72590;SDS011;60625;51.212;5.952;2023-02-04T21:53:58;29.50;;;9.40;;
72590;SDS011;60625;51.212;5.952;2023-02-04T21:59:00;18.80;;;7.30;;
72590;SDS011;60625;51.212;5.952;2023-02-04T22:04:00;23.70;;;7.20;;
72590;SDS011;60625;51.212;5.952;2023-02-04T22:09:01;20.40;;;7.30;;
72590;SDS011;60625;51.212;5.952;2023-02-04T22:14:01;16.90;;;7.40;;
72590;SDS011;60625;51.212;5.952;2023-02-04T22:19:02;21.10;;;7.00;;
72590;SDS011;60625;51.212;5.952;2023-02-04T22:24:02;24.00;;;8.60;;
72590;SDS011;60625;51.212;5.952;2023-02-04T22:29:03;25.50;;;9.20;;
72590;SDS011;60625;51.212;5.952;2023-02-04T22:34:04;16.40;;;7.70;;
72590;SDS011;60625;51.212;5.952;2023-02-04T22:39:05;19.90;;;7.10;;
72590;SDS011;60625;51.212;5.952;2023-02-04T22:44:06;19.50;;;8.20;;
72590;SDS011;60625;51.212;5.952;2023-02-04T22:49:06;25.70;;;8.70;;
72590;SDS011;60625;51.212;5.952;2023-02-04T22:54:07;27.70;;;9.80;;
72590;SDS011;60625;51.212;5.952;2023-02-04T22:59:07;23.90;;;9.00;;
72590;SDS011;60625;51.212;5.952;2023-02-04T23:04:08;24.90;;;9.80;;
72590;SDS011;60625;51.212;5.952;2023-02-04T23:09:09;34.10;;;12.20;;
72590;SDS011;60625;51.212;5.952;2023-02-04T23:14:09;22.00;;;9.10;;
72590;SDS011;60625;51.212;5.952;2023-02-04T23:19:10;25.10;;;10.50;;
72590;SDS011;60625;51.212;5.952;2023-02-04T23:24:10;28.10;;;9.10;;
72590;SDS011;60625;51.212;5.952;2023-02-04T23:29:11;18.80;;;8.60;;
72590;SDS011;60625;51.212;5.952;2023-02-04T23:34:12;24.80;;;9.60;;
72590;SDS011;60625;51.212;5.952;2023-02-04T23:39:12;23.10;;;10.50;;
72590;SDS011;60625;51.212;5.952;2023-02-04T23:44:13;32.00;;;12.70;;
72590;SDS011;60625;51.212;5.952;2023-02-04T23:49:14;33.60;;;12.80;;
72590;SDS011;60625;51.212;5.952;2023-02-04T23:54:15;38.50;;;14.40;;
72590;SDS011;60625;51.212;5.952;2023-02-04T23:59:15;36.70;;;14.00;;
